Aviation Digital Data Service (ADDS)

Output produced by METARs form (1827 UTC 22 November 2017)
found at http://www.aviationweather.gov/adds/metars/
 
EPBY 221800Z 18006KT 1700 -DZ BR OVC002 06/06 Q1010
TAF EPBY 221730Z 2218/2318 18010KT 7000 OVC005 
     TEMPO 2218/2223 1400 DZ BR BKN002 
     PROB40 2223/2306 0600 FG OVC001 
     BECMG 2306/2309 8000 BKN014 
     BECMG 2309/2312 SCT025
       
TAF EPCE 221700Z 2218/2303 18008KT 5000 BR BKN006 OVC010 
     TEMPO 2218/2221 2000 DZRA BR OVC003 
     TEMPO 2218/2303 0500 FG OVC002
       
TAF COR EPDA 221700Z 2218/2303 20010KT 9999 OVC015 
     TEMPO 2218/2222 5000 -RA BR BKN010 
     PROB30 
     TEMPO 2218/2222 3000 RADZ BR BKN005 
     BECMG 2222/2224 BKN020
       
TAF EPDE 221700Z 2218/2303 13008KT 2000 BR BKN005 OVC010 
     PROB40 2220/2303 1000 BR OVC003
       
EPGD 221800Z 17006KT 0400 R29/0900N FG VV001 02/02 Q1008 R11/290095
TAF EPGD 221730Z 2218/2318 17010KT 3000 BR BKN003 
     TEMPO 2218/2308 0350 DZ FG OVC001 
     PROB40 2218/2223 1400 RA DZ BR OVC002 
     BECMG 2308/2311 5000 BR BKN007
       
TAF EPIR 221400Z 2215/2224 13008KT 0800 DZ FG OVC003 
     BECMG 2220/2224 19008KT 2000 DZ BR BKN006
       
EPKK 221800Z 22004KT 4000 BR OVC023 07/06 Q1013
TAF EPKK 221730Z 2218/2318 VRB02KT 4000 BR OVC020 
     BECMG 2218/2221 2500 BR 
     BECMG 2221/2223 0700 FG BKN002 
     BECMG 2223/2301 0300 FG OVC001 
     BECMG 2307/2309 2000 BR BKN003 
     BECMG 2309/2311 6000 SCT005 
     BECMG 2314/2316 0600 FG BKN002
       
TAF EPKS 221700Z 2218/2303 16006KT 6000 BKN020 
     PROB30 2221/2303 2000 BR
       
EPKT 221800Z 22007KT 2400 BR BKN012 OVC015 07/06 Q1013
TAF EPKT 221730Z 2218/2318 21007KT 3500 BR OVC017 
     TEMPO 2218/2220 2000 BR BKN013 
     BECMG 2220/2223 7000 
     BECMG 2311/2314 22016G27KT
       
EPLB 221800Z 13006KT 2000 -DZ BR OVC005 02/01 Q1015
TAF EPLB 221730Z 2218/2303 15005KT 3000 DZ BR BKN005 
     TEMPO 2218/2303 1500 DZ BR BKN002 
     PROB40 2221/2303 0600 FG OVC001
       
EPLL 221800Z 21004KT 1300 R25/2000N BR OVC002 07/06 Q1012
TAF EPLL 221730Z 2218/2318 VRB03KT 2500 BR BKN004 
     TEMPO 2218/2224 0500 DZ FG OVC001 
     BECMG 2300/2303 4500 BR 
     BECMG 2303/2306 14010KT 8000 SCT010
       
TAF EPLY 221700Z 2218/2303 21006KT 4000 BR BKN010 
     TEMPO 2218/2224 2000 RADZ BR BKN006 
     PROB40 
     TEMPO 2300/2303 1000 BR BKN003
       
TAF EPMB 221700Z 2218/2303 17010KT 3000 BR BKN006 
     TEMPO 2218/2303 2000 DZ BR BKN004 
     PROB40 
     TEMPO 2219/2224 1000 RADZ BR BKN003
       
TAF EPMI 221700Z 2218/2303 23008KT 3000 BR BKN005 OVC010 
     TEMPO 2218/2303 1500 DZRA BKN003 
     PROB40 2218/2303 0500 FG OVC002
       
TAF EPMM 221700Z 2218/2303 15006KT 1000 RASN OVC003 
     BECMG 2220/2223 18003KT 0600 FZFG OVC002
       
EPMO 221800Z 14009KT 120V190 3000 -DZ BR OVC003 02/02 Q1012
TAF EPMO 221730Z 2218/2318 14007KT 3500 BR BKN004 
     PROB40 2218/2305 0600 DZ FG OVC001 
     BECMG 2306/2308 8000 SCT010
       
TAF EPOK 221700Z 2218/2303 16015KT 3000 BR RA BKN005 
     TEMPO 2218/2303 1000 DZRA BKN002
       
EPPO 221800Z 19005KT 7000 OVC020 08/08 Q1010
TAF EPPO 221730Z 2218/2318 20006KT 6000 BKN020 
     PROB30 
     TEMPO 2218/2222 2500 -DZ BR OVC004 
     TEMPO 2222/2307 2500 BR 
     PROB30 2301/2307 0500 FG
       
TAF EPPR 221700Z 2218/2303 15006KT 1000 BR OVC004 
     PROB40 2220/2224 0800 RADZ FG BKN002
       
TAF EPPW 221700Z 2218/2303 23006KT 6000 BKN017 
     TEMPO 2218/2222 2500 DZ BR BKN005 
     BECMG 2221/2223 SCT020 
     PROB30 2222/2303 0600 FG BKN003
       
EPRA 221800Z 16007KT 2000 -DZ BR OVC003 03/03 Q1013
TAF EPRA 221730Z 2218/2303 17006KT 2000 -DZ BR OVC003 
     PROB40 2221/2303 0500 FG OVC002
       
EPRZ 221800Z 20004KT 160V220 3000 -DZ BR OVC003 04/03 Q1014
TAF EPRZ 221730Z 2218/2318 18006KT 3000 BR BKN002 OVC004 
     TEMPO 2218/2222 1200 DZ BR 
     BECMG 2222/2224 SCT004 OVC006 
     TEMPO 2300/2307 BKN003 OVC005 
     BECMG 2307/2309 18015G28KT 7000 SCT005 BKN010 
     TEMPO 2315/2318 BKN005
       
EPSC 221800Z 17007KT 9999 FEW006 SCT015 BKN020 09/08 Q1007
TAF EPSC 221730Z 2218/2318 18008KT 7000 BKN005 
     TEMPO 2218/2222 2000 -DZ BR BKN003 
     PROB40 2222/2306 0600 FG BKN002 
     BECMG 2306/2309 SCT025
       
TAF EPSN 221700Z 2218/2303 22008KT 5000 BR BKN005 OVC010 
     TEMPO 2218/2220 3000 BR BKN004 
     BECMG 2220/2223 8000 NSW BKN020
       
EPSY 221800Z 15007KT 100V180 1700 -DZ BR OVC002 00/00 Q1012 R01/290295
TAF EPSY 221730Z 2218/2303 15006KT 2000 DZ BR OVC002 
     BECMG 2220/2222 0500 FG
       
TAF EPTM 221700Z 2218/2303 16004KT 3000 BR BKN005 OVC010 
     TEMPO 2218/2221 1500 DZ BR BKN003
       
EPWA 221800Z 15008KT 4700 -RA BR BKN003 03/02 Q1013 NOSIG
TAF EPWA 221730Z 2218/2318 14007KT 4000 BR BKN005 
     TEMPO 2220/2306 1500 BR BKN002 
     PROB40 2220/2306 0600 DZ FG 
     BECMG 2306/2308 8000 SCT008
       
EPWR 221800Z 23006KT 9999 BKN030 08/05 Q1012
TAF EPWR 221730Z 2218/2318 20006KT 9999 BKN025 
     PROB30 
     TEMPO 2223/2306 0500 FG
       
EPZG 221400Z 21010KT 9999 FEW014 OVC023 09/08 Q1010
TAF EPZG 221430Z 2215/2224 21010KT 9999 BKN023 
     PROB30 
     TEMPO 2215/2220 2500 -DZ BR BKN008 
     PROB40 2220/2224 3000 BR
       
EPZG 221400Z 21010KT 9999 FEW014 OVC023 09/08 Q1010
TAF EPZG 221430Z 2215/2224 21010KT 9999 BKN023 
     PROB30 
     TEMPO 2215/2220 2500 -DZ BR BKN008 
     PROB40 2220/2224 3000 BR
       
EPKK 221800Z 22004KT 4000 BR OVC023 07/06 Q1013
TAF EPKK 221730Z 2218/2318 VRB02KT 4000 BR OVC020 
     BECMG 2218/2221 2500 BR 
     BECMG 2221/2223 0700 FG BKN002 
     BECMG 2223/2301 0300 FG OVC001 
     BECMG 2307/2309 2000 BR BKN003 
     BECMG 2309/2311 6000 SCT005 
     BECMG 2314/2316 0600 FG BKN002
       
TAF EPDE 221700Z 2218/2303 13008KT 2000 BR BKN005 OVC010 
     PROB40 2220/2303 1000 BR OVC003
       
EPSC 221800Z 17007KT 9999 FEW006 SCT015 BKN020 09/08 Q1007
TAF EPSC 221730Z 2218/2318 18008KT 7000 BKN005 
     TEMPO 2218/2222 2000 -DZ BR BKN003 
     PROB40 2222/2306 0600 FG BKN002 
     BECMG 2306/2309 SCT025
       
EPRZ 221800Z 20004KT 160V220 3000 -DZ BR OVC003 04/03 Q1014
TAF EPRZ 221730Z 2218/2318 18006KT 3000 BR BKN002 OVC004 
     TEMPO 2218/2222 1200 DZ BR 
     BECMG 2222/2224 SCT004 OVC006 
     TEMPO 2300/2307 BKN003 OVC005 
     BECMG 2307/2309 18015G28KT 7000 SCT005 BKN010 
     TEMPO 2315/2318 BKN005
       
TAF EPKS 221700Z 2218/2303 16006KT 6000 BKN020 
     PROB30 2221/2303 2000 BR
       
EPPO 221800Z 19005KT 7000 OVC020 08/08 Q1010
TAF EPPO 221730Z 2218/2318 20006KT 6000 BKN020 
     PROB30 
     TEMPO 2218/2222 2500 -DZ BR OVC004 
     TEMPO 2222/2307 2500 BR 
     PROB30 2301/2307 0500 FG
       
EPLL 221800Z 21004KT 1300 R25/2000N BR OVC002 07/06 Q1012
TAF EPLL 221730Z 2218/2318 VRB03KT 2500 BR BKN004 
     TEMPO 2218/2224 0500 DZ FG OVC001 
     BECMG 2300/2303 4500 BR 
     BECMG 2303/2306 14010KT 8000 SCT010
       
EPWA 221800Z 15008KT 4700 -RA BR BKN003 03/02 Q1013 NOSIG
TAF EPWA 221730Z 2218/2318 14007KT 4000 BR BKN005 
     TEMPO 2220/2306 1500 BR BKN002 
     PROB40 2220/2306 0600 DZ FG 
     BECMG 2306/2308 8000 SCT008
       
EPKT 221800Z 22007KT 2400 BR BKN012 OVC015 07/06 Q1013
TAF EPKT 221730Z 2218/2318 21007KT 3500 BR OVC017 
     TEMPO 2218/2220 2000 BR BKN013 
     BECMG 2220/2223 7000 
     BECMG 2311/2314 22016G27KT
       
EPGD 221800Z 17006KT 0400 R29/0900N FG VV001 02/02 Q1008 R11/290095
TAF EPGD 221730Z 2218/2318 17010KT 3000 BR BKN003 
     TEMPO 2218/2308 0350 DZ FG OVC001 
     PROB40 2218/2223 1400 RA DZ BR OVC002 
     BECMG 2308/2311 5000 BR BKN007
       
EPWR 221800Z 23006KT 9999 BKN030 08/05 Q1012
TAF EPWR 221730Z 2218/2318 20006KT 9999 BKN025 
     PROB30 
     TEMPO 2223/2306 0500 FG
       
TAF EPSN 221700Z 2218/2303 22008KT 5000 BR BKN005 OVC010 
     TEMPO 2218/2220 3000 BR BKN004 
     BECMG 2220/2223 8000 NSW BKN020
       
EPBY 221800Z 18006KT 1700 -DZ BR OVC002 06/06 Q1010
TAF EPBY 221730Z 2218/2318 18010KT 7000 OVC005 
     TEMPO 2218/2223 1400 DZ BR BKN002 
     PROB40 2223/2306 0600 FG OVC001 
     BECMG 2306/2309 8000 BKN014 
     BECMG 2309/2312 SCT025
       
EPSY 221800Z 15007KT 100V180 1700 -DZ BR OVC002 00/00 Q1012 R01/290295
TAF EPSY 221730Z 2218/2303 15006KT 2000 DZ BR OVC002 
     BECMG 2220/2222 0500 FG